Tehran, Iran

12:43 PM IRDT on July 30, 2015 (GMT +0430)
molasadra | | Change Station
CLOSE
Current Station
Personal Weather Station
Location: Tehran, TEHRAN
Elevation: 4774 ft
Nearby Weather Stations

Elev 4774 ft 35.76 °N, 51.40 °E | Updated 5 minutes ago

Partly Cloudy
Partly Cloudy
87.7 °F
Feels Like 84 °F
N
6.0
Wind Variable Wind from West
Gusts 6.0 mph

Today
High -- | Low -- °F
--% Chance of Precip.
Yesterday
High -- | Low -- °F
Precip. -- in
6:10 AM 8:11 PM
Waxing Gibbous, 98% visible
Pressure 30.01 in
Visibility 6.2 miles
Clouds Few 3500 ft
Heat Index 84 °F
Dew Point 40 °F
Humidity 19%
Rainfall 0.00 in
Snow Depth Not available.
UV 11 out of 12
Pollen Not available.
Air Quality Not available.
Flu Activity Not available.
METAR OIII 300800Z 18006KT 9999 FEW035 33/01 Q1016 A3001 NOSIG

More Conditions Fewer Conditions

Pressure 30.01 in
Visibility 6.2 miles
Clouds Few 3500 ft
Heat Index 84 °F
Dew Point 40 °F
Humidity 19%
Rainfall 0.00 in
Snow Depth Not available.
UV 11 out of 12
Pollen Not available.
Air Quality Not available.
Flu Activity Not available.
METAR OIII 300800Z 18006KT 9999 FEW035 33/01 Q1016 A3001 NOSIG

More Conditions Fewer Conditions

10-Day Weather Forecast

×

Almanac

Astronomy

Jul. 30, 2015 Rise Set
Actual Time
Civil Twilight
Nautical Twilight
Astronomical Twilight
Moon
Length of Visible Light
Length of Day
Tomorrow will be .
, % of the Moon is Illuminated

Today's Extremes

Country Highs Country Lows

Community

WunderPhotos

Upload Photos

1,842,315 photos uploaded!

WunderBlogs® & News

Nearby

Air Quality

  Air Quality AQ Index Pollutant
Not available.

Snow Depth

Station Depth Elevation

Earthquake Activity

City Distance Mag. Time & Date
Minimum magnitude displayed is 2.5.

Coastal Water Temperatures

Place Temperature

Stations

Nearby Weather Stations

Station Location Temp. Windchill Dew Point Humidity Wind Precip. Elev Updated Type